KSVE/SVE METAR and TAF weather

Enter ICAO airport designator
Station Type Date Time Source
KSVE METAR 2020/12/05 05:35 UTC NOAA

KSVE 050535Z AUTO 27003KT 10SM CLR M03/M05 A3039 RMK AO2


Station Type Date Time Source
KSVE Decoded METAR 2020/12/05 05:35 UTC NOAA

Susanville Municipal, CA, United States (KSVE) 40-23N 120-34W
Dec 05, 2020 - 12:35 AM EST / 2020.12.05 0535 UTC
Wind: from the W (270 degrees) at 3 MPH (3 KT):0
Visibility: 10 mile(s):0
Sky conditions: clear
Temperature: 26 F (-3 C)
Dew Point: 23 F (-5 C)
Relative Humidity: 86%
Pressure (altimeter): 30.39 in. Hg (1029 hPa)
ob: KSVE 050535Z AUTO 27003KT 10SM CLR M03/M05 A3039 RMK AO2
cycle: 5

Station Type Date Time Source
KSVE TAF UTC NOAA

Error!

Example: see airport list